• Join FlightAware (Why Join?)
  • Login
  • US Flag 
10:19PM EDT


 

Airport Tracker/Info


-or-


 

Live Flight TrackerFlight Track Log ✈ UAL1208 ✈ 26-Apr-2013 ✈ KIAH - KDEN

Flight Track Log - Related Links

Times and Time Zones

All times are in EDT time to prevent confusion due to time zone crossing. See the UAL1208 flight status page for this flight to view local times or setup timezone preferences in your user account.

Time Position Orientation Groundspeed Altitude Reporting Facility
EDT Latitude Longitude Course Direction KTS MPH feet Rate Location/Type
06:46PM 29.9781 -95.2933 62° Northeast 173 199 900  Level Houston Center
06:46PM 29.9872 -95.2731 62° Northeast 177 204 1,700 1,620 Climbing Houston Center
06:47PM 30.0519 -95.2731 360° North 253 291 3,600 2,400 Climbing Houston Center
06:48PM 30.1278 -95.3342 325° Northwest 277 319 6,700 3,000 Climbing Houston Center
06:49PM 30.1972 -95.3889 326° Northwest 297 342 9,900 2,700 Climbing Houston Center
06:50PM 30.2656 -95.4442 325° Northwest 298 343 12,400 1,920 Climbing Houston Center
06:51PM 30.3439 -95.5044 326° Northwest 327 376 13,900 1,740 Climbing Houston Center
06:53PM 30.4300 -95.5708 326° Northwest 362 417 16,000 2,220 Climbing Houston Center
06:54PM 30.5361 -95.6525 326° Northwest 381 438 18,600 1,440 Climbing Houston Center
06:55PM 30.6364 -95.7058 335° Northwest 392 451 19,000 600 Climbing Houston Center
06:56PM 30.7314 -95.7581 335° Northwest 395 455 19,900 1,440 Climbing Houston Center
06:57PM 30.8308 -95.8103 336° Northwest 391 450 22,100 2,040 Climbing Houston Center
06:58PM 30.9544 -95.8761 335° Northwest 401 461 24,200 1,740 Climbing Houston Center
06:59PM 31.0600 -95.9322 336° Northwest 411 473 25,700 1,380 Climbing Houston Center
07:00PM 31.1667 -95.9850 337° Northwest 415 478 27,100 1,260 Climbing Houston Center
07:00PM 31.2347 -96.0092 343° North 411 473 27,900 1,200 Climbing Fort Worth Center
07:01PM 31.3564 -96.0583 341° North 424 488 29,100 1,080 Climbing Fort Worth Center
07:02PM 31.4758 -96.1053 341° North 430 495 30,100 1,140 Climbing Fort Worth Center
07:03PM 31.5933 -96.1475 343° North 441 507 31,400 1,200 Climbing Fort Worth Center
07:04PM 31.7086 -96.1947 341° North 441 507 32,600 1,080 Climbing Fort Worth Center
07:05PM 31.8258 -96.2422 341° North 441 507 33,600 960 Climbing Fort Worth Center
07:06PM 31.9389 -96.2847 342° North 435 501 34,600 1,080 Climbing Fort Worth Center
07:07PM 32.0564 -96.3325 341° North 440 506 35,800 660 Climbing Fort Worth Center
07:08PM 32.1672 -96.3778 341° North 428 493 36,000 60 Climbing Fort Worth Center
07:09PM 32.2556 -96.4578 323° Northwest 405 466 36,000  Level Fort Worth Center
07:10PM 32.3397 -96.5528 316° Northwest 415 478 36,000  Level Fort Worth Center
07:11PM 32.4197 -96.6431 316° Northwest 400 460 36,000  Level Fort Worth Center
07:12PM 32.4911 -96.7261 316° Northwest 400 460 36,000  Level Fort Worth Center
07:13PM 32.5731 -96.8192 316° Northwest 405 466 36,000  Level Fort Worth Center
07:14PM 32.6528 -96.9100 316° Northwest 405 466 36,000  Level Fort Worth Center
07:15PM 32.7347 -97.0033 316° Northwest 405 466 36,000  Level Fort Worth Center
07:16PM 32.8183 -97.0969 317° Northwest 405 466 36,000  Level Fort Worth Center
07:17PM 32.9083 -97.2006 316° Northwest 405 466 36,000  Level Fort Worth Center
07:18PM 32.9772 -97.2919 312° West 405 466 36,000  Level Fort Worth Center
07:19PM 33.0672 -97.4061 313° West 430 495 36,000  Level Fort Worth Center
07:20PM 33.1381 -97.4953 314° West 418 481 36,000  Level Fort Worth Center
07:21PM 33.2153 -97.5922 314° West 409 471 36,000  Level Fort Worth Center
07:22PM 33.2903 -97.6892 313° West 403 464 36,000  Level Fort Worth Center
07:23PM 33.3672 -97.7867 313° West 398 458 36,000  Level Fort Worth Center
07:24PM 33.4400 -97.8839 312° West 393 452 36,000  Level Fort Worth Center
07:25PM 33.5167 -97.9789 314° West 393 452 36,000  Level Fort Worth Center
07:26PM 33.5914 -98.0792 312° West 393 452 36,000  Level Fort Worth Center
07:27PM 33.6742 -98.1872 313° West 393 452 36,000  Level Fort Worth Center
07:28PM 33.7486 -98.2828 313° West 398 458 36,000  Level Fort Worth Center
07:29PM 33.8253 -98.3811 313° West 398 458 36,000  Level Fort Worth Center
07:30PM 33.8975 -98.4819 311° West 398 458 36,000  Level Fort Worth Center
07:31PM 33.9758 -98.5781 315° West 398 458 36,000  Level Fort Worth Center
07:32PM 34.0606 -98.6694 318° Northwest 398 458 36,000  Level Fort Worth Center
07:33PM 34.1328 -98.7608 314° West 405 466 36,000  Level Fort Worth Center
07:34PM 34.2131 -98.8500 317° Northwest 405 466 36,000  Level Fort Worth Center
07:35PM 34.2975 -98.9444 317° Northwest 405 466 36,000  Level Fort Worth Center
07:36PM 34.3778 -99.0339 317° Northwest 398 458 36,000  Level Fort Worth Center
07:37PM 34.4703 -99.1364 318° Northwest 398 458 36,000  Level Fort Worth Center
07:38PM 34.5483 -99.2236 317° Northwest 392 451 36,000  Level Fort Worth Center
07:39PM 34.6283 -99.3164 316° Northwest 392 451 36,000  Level Fort Worth Center
07:40PM 34.7081 -99.4092 316° Northwest 397 457 36,000  Level Fort Worth Center
07:42PM 34.8394 -99.5556 318° Northwest 400 460 36,000  Level Kansas City Center
07:43PM 34.9200 -99.6483 317° Northwest 398 458 36,000  Level Kansas City Center
07:44PM 35.0169 -99.7594 317° Northwest 398 458 36,000  Level Albuquerque Center
07:45PM 35.0981 -99.8522 317° Northwest 398 458 36,000  Level Albuquerque Center
07:46PM 35.1786 -99.9447 317° Northwest 397 457 36,000  Level Albuquerque Center
07:47PM 35.2597 -100.0378 317° Northwest 398 458 36,000  Level Albuquerque Center
07:48PM 35.3397 -100.1331 316° Northwest 398 458 36,000  Level Albuquerque Center
07:49PM 35.4222 -100.2267 317° Northwest 400 460 36,000  Level Albuquerque Center
07:50PM 35.5197 -100.3411 316° Northwest 401 461 36,000  Level Albuquerque Center
07:51PM 35.6003 -100.4375 316° Northwest 402 463 36,000  Level Albuquerque Center
07:52PM 35.6497 -100.4947 317° Northwest 402 463 36,000  Level Albuquerque Center
07:53PM 35.6825 -100.5331 316° Northwest 403 464 36,000  Level Albuquerque Center
07:53PM 35.7311 -100.5906 316° Northwest 403 464 36,000  Level Albuquerque Center
07:54PM 35.7633 -100.6283 316° Northwest 402 463 36,000  Level Albuquerque Center
07:54PM 35.8194 -100.6783 324° Northwest 410 472 36,000  Level Albuquerque Center
07:55PM 35.8597 -100.7069 330° Northwest 420 483 36,000  Level Albuquerque Center
07:55PM 35.9222 -100.7503 331° Northwest 419 482 36,000  Level Albuquerque Center
07:56PM 35.9631 -100.7800 329° Northwest 422 486 36,000  Level Albuquerque Center
07:56PM 36.0244 -100.8228 331° Northwest 422 486 36,000  Level Albuquerque Center
07:57PM 36.0658 -100.8511 331° Northwest 422 486 36,000  Level Albuquerque Center
07:57PM 36.1269 -100.8956 330° Northwest 422 486 36,000  Level Albuquerque Center
07:58PM 36.1683 -100.9247 330° Northwest 422 486 36,000  Level Albuquerque Center
07:58PM 36.2303 -100.9681 331° Northwest 424 488 36,000  Level Albuquerque Center
07:59PM 36.2783 -101.0033 329° Northwest 424 488 36,000  Level Albuquerque Center
07:59PM 36.3450 -101.0511 330° Northwest 428 493 36,000  Level Albuquerque Center
08:00PM 36.3811 -101.0764 331° Northwest 428 493 36,000  Level Kansas City Center
08:01PM 36.4931 -101.1558 330° Northwest 426 490 36,000  Level Kansas City Center
08:01PM 36.5594 -101.2042 330° Northwest 428 493 36,000  Level Albuquerque Center
08:02PM 36.5919 -101.2253 332° Northwest 425 489 36,000  Level Albuquerque Center
08:02PM 36.6581 -101.2744 329° Northwest 427 491 36,000  Level Albuquerque Center
08:03PM 36.7072 -101.3106 330° Northwest 429 494 36,000  Level Albuquerque Center
08:03PM 36.7739 -101.3581 330° Northwest 430 495 36,000  Level Albuquerque Center
08:04PM 36.8067 -101.3819 330° Northwest 429 494 36,000  Level Albuquerque Center
08:04PM 36.8728 -101.4294 330° Northwest 429 494 36,000  Level Albuquerque Center
08:05PM 36.9233 -101.4650 331° Northwest 430 495 36,000  Level Albuquerque Center
08:05PM 36.9736 -101.5008 330° Northwest 431 496 36,000  Level Albuquerque Center
08:06PM 37.0242 -101.5386 329° Northwest 434 499 36,000  Level Albuquerque Center
08:06PM 37.0908 -101.5875 330° Northwest 435 501 36,000  Level Albuquerque Center
08:07PM 37.1250 -101.6128 329° Northwest 437 503 36,000  Level Albuquerque Center
08:08PM 37.1925 -101.6619 330° Northwest 439 505 36,000  Level Albuquerque Center
08:08PM 37.2247 -101.6842 331° Northwest 434 499 36,000  Level Kansas City Center
08:09PM 37.3431 -101.7731 329° Northwest 440 506 36,000  Level Kansas City Center
08:10PM 37.4447 -101.8453 331° Northwest 438 504 36,000  Level Kansas City Center
08:11PM 37.5294 -101.9094 329° Northwest 439 505 36,000  Level Albuquerque Center
08:12PM 37.6814 -102.0217 330° Northwest 439 505 36,000  Level Denver Center
08:13PM 37.8000 -102.1100 330° Northwest 441 507 36,000 -600 Level Denver Center
08:14PM 37.8861 -102.2067 318° Northwest 434 499 34,800 -1,620 Descending Denver Center
08:15PM 37.9778 -102.3314 313° West 431 496 32,700 -1,380 Descending Denver Center
08:16PM 38.0603 -102.4442 313° West 451 519 32,000 -360 Descending Denver Center
08:17PM 38.1547 -102.5722 313° West 445 512 32,000  Level Denver Center
08:18PM 38.2347 -102.6836 312° West 445 512 32,000  Level Denver Center
08:19PM 38.3172 -102.7961 313° West 452 520 32,000  Level Denver Center
08:20PM 38.4111 -102.9261 313° West 446 513 32,000  Level Denver Center
08:21PM 38.4931 -103.0372 313° West 450 518 32,000 -300 Level Denver Center
08:22PM 38.5850 -103.1667 312° West 445 512 31,400 -780 Descending Denver Center
08:24PM 38.6697 -103.2856 312° West 448 516 30,400 -840 Descending Denver Center
08:25PM 38.7544 -103.4042 313° West 448 516 29,700 -960 Descending Denver Center
08:26PM 38.8453 -103.5333 312° West 442 509 28,500 -1,440 Descending Denver Center
08:27PM 38.9178 -103.6350 313° West 428 493 26,800 -1,980 Descending Denver Center
08:28PM 38.9956 -103.7433 313° West 411 473 24,500 -2,040 Descending Denver Center
08:29PM 39.0569 -103.8325 312° West 398 458 22,600 -2,280 Descending Denver Center
08:30PM 39.1525 -103.9669 313° West 379 436 19,900 -2,220 Descending Denver Center
08:31PM 39.2178 -104.0636 311° West 363 418 18,100 -1,320 Descending Denver Center
08:32PM 39.2683 -104.1611 304° West 336 387 17,200 -1,140 Descending Denver Center
08:33PM 39.2881 -104.2508 286° West 314 361 15,800 -1,380 Descending Denver Center
08:34PM 39.3161 -104.3736 286° West 295 339 14,400 -1,140 Descending Denver Center
08:36PM 39.3733 -104.5469 293° West 263 303 12,400 -900 Descending Denver Center
08:37PM 39.4425 -104.5647 349° North 255 293 11,700 -1,020 Descending Denver Center
08:38PM 39.5203 -104.5847 349° North 266 306 10,400 -1,020 Descending Denver Center
08:39PM 39.5928 -104.6036 349° North 268 308 9,600 -780 Descending Denver Center